createdAt,value
2023-02-15T00:02:06.932Z,99928.63
2023-02-15T00:04:48.092Z,99923.13
2023-02-15T00:07:20.059Z,99929.91
2023-02-15T00:09:49.567Z,99936.28
2023-02-15T00:12:18.818Z,99930.59
2023-02-15T00:14:49.122Z,99925.38
2023-02-15T00:17:18.387Z,99923.00
2023-02-15T00:19:47.534Z,99926.19
2023-02-15T00:22:16.750Z,99932.06
2023-02-15T00:24:45.888Z,99929.50
2023-02-15T00:27:15.133Z,99930.25
2023-02-15T00:29:44.426Z,99924.72
2023-02-15T00:32:13.570Z,99924.13
2023-02-15T00:34:44.410Z,99918.19
2023-02-15T00:37:13.652Z,99922.59
2023-02-15T00:39:42.809Z,99919.13
2023-02-15T00:42:11.995Z,99914.91
2023-02-15T00:44:41.314Z,99916.06
2023-02-15T00:47:10.478Z,99918.72
2023-02-15T00:49:39.656Z,99916.25
2023-02-15T00:52:08.837Z,99913.09
2023-02-15T00:54:39.778Z,99927.31
2023-02-15T00:57:09.104Z,99925.19
2023-02-15T00:59:38.383Z,99926.56
2023-02-15T01:02:07.701Z,99920.06
2023-02-15T01:04:37.013Z,99915.84
2023-02-15T01:07:06.265Z,99907.13
2023-02-15T01:09:36.147Z,99920.63
2023-02-15T01:12:06.081Z,99925.19
2023-02-15T01:14:35.282Z,99920.22
2023-02-15T01:17:04.480Z,99916.91
2023-02-15T01:19:37.384Z,99920.38
2023-02-15T01:22:06.612Z,99911.78
2023-02-15T01:24:38.342Z,99916.06
2023-02-15T01:27:07.529Z,99909.56
2023-02-15T01:29:36.877Z,99903.94
2023-02-15T01:32:06.230Z,99913.69
2023-02-15T01:34:35.615Z,99916.00
2023-02-15T01:37:04.791Z,99900.56
2023-02-15T01:39:34.026Z,99897.88
2023-02-15T01:42:03.587Z,99902.22
2023-02-15T01:44:54.388Z,99915.09
2023-02-15T01:47:46.595Z,99897.41
2023-02-15T01:50:25.152Z,99905.50
2023-02-15T01:53:43.763Z,99906.66
2023-02-15T01:56:21.536Z,99900.03
2023-02-15T01:58:58.963Z,99907.81
2023-02-15T02:01:29.385Z,99904.00
2023-02-15T02:04:12.947Z,99905.50
2023-02-15T02:06:42.676Z,99909.53
2023-02-15T02:09:13.744Z,99901.06
2023-02-15T02:11:48.691Z,99902.53
2023-02-15T02:14:18.951Z,99893.28
2023-02-15T02:17:23.117Z,99901.22
2023-02-15T02:20:26.391Z,99902.53
2023-02-15T02:22:55.572Z,99892.28
2023-02-15T02:25:51.787Z,99895.41
2023-02-15T02:28:34.416Z,99893.94
2023-02-15T02:31:35.773Z,99892.28
2023-02-15T02:34:42.584Z,99888.34
2023-02-15T02:37:31.636Z,99886.00
2023-02-15T02:40:35.381Z,99888.47
2023-02-15T02:43:50.212Z,99889.47
2023-02-15T02:46:45.322Z,99880.53
2023-02-15T02:49:14.769Z,99888.13
2023-02-15T02:51:44.138Z,99889.03
2023-02-15T02:54:13.466Z,99879.69
2023-02-15T02:56:50.018Z,99884.75
2023-02-15T02:59:28.590Z,99873.75
2023-02-15T03:02:08.292Z,99886.47
2023-02-15T03:04:43.508Z,99885.00
2023-02-15T03:07:23.060Z,99885.56
2023-02-15T03:09:57.910Z,99880.44
2023-02-15T03:12:40.347Z,99886.16
2023-02-15T03:15:20.263Z,99885.25
2023-02-15T03:17:58.621Z,99883.00
2023-02-15T03:20:37.793Z,99890.63
2023-02-15T03:23:20.854Z,99893.75
2023-02-15T03:26:06.135Z,99878.88
2023-02-15T03:28:46.299Z,99886.84
2023-02-15T03:31:19.463Z,99889.66
2023-02-15T03:34:01.074Z,99884.94
2023-02-15T03:37:18.866Z,99895.75
2023-02-15T03:40:20.106Z,99888.88
2023-02-15T03:43:02.106Z,99897.59
2023-02-15T03:45:35.597Z,99899.56
2023-02-15T03:48:07.387Z,99889.72
2023-02-15T03:50:58.255Z,99890.72
2023-02-15T03:53:28.209Z,99896.31
2023-02-15T03:55:57.712Z,99904.41
2023-02-15T03:58:45.214Z,99900.31
2023-02-15T04:01:53.963Z,99905.41
2023-02-15T04:04:29.290Z,99900.38
2023-02-15T04:06:58.635Z,99904.47
2023-02-15T04:09:46.650Z,99899.53
2023-02-15T04:12:15.996Z,99898.38
2023-02-15T04:15:03.902Z,99903.34
2023-02-15T04:17:33.746Z,99899.69
2023-02-15T04:20:21.242Z,99912.91
2023-02-15T04:23:08.802Z,99904.94
2023-02-15T04:25:38.134Z,99901.78
2023-02-15T04:28:08.780Z,99915.47
2023-02-15T04:30:38.069Z,99916.22
2023-02-15T04:33:07.273Z,99916.06
2023-02-15T04:35:36.490Z,99914.09
2023-02-15T04:38:05.867Z,99909.78
2023-02-15T04:40:35.063Z,99904.59
2023-02-15T04:43:04.284Z,99913.03
2023-02-15T04:45:33.636Z,99915.47
2023-02-15T04:48:02.981Z,99924.00
2023-02-15T04:50:32.184Z,99918.06
2023-02-15T04:53:01.471Z,99917.97
2023-02-15T04:55:30.651Z,99916.84
2023-02-15T04:57:59.824Z,99909.81
2023-02-15T05:00:29.272Z,99910.56
2023-02-15T05:02:58.479Z,99906.00
2023-02-15T05:05:27.707Z,99907.41
2023-02-15T05:07:57.116Z,99902.69
2023-02-15T05:10:26.353Z,99909.47
2023-02-15T05:12:55.633Z,99912.44
2023-02-15T05:15:24.886Z,99903.75
2023-02-15T05:17:54.095Z,99909.47
2023-02-15T05:20:23.407Z,99910.75
2023-02-15T05:22:55.847Z,99921.34
2023-02-15T05:25:43.536Z,99914.03
2023-02-15T05:28:21.754Z,99906.81
2023-02-15T05:31:17.844Z,99915.81
2023-02-15T05:33:47.535Z,99927.41
2023-02-15T05:36:16.862Z,99922.06
2023-02-15T05:38:46.309Z,99921.75
2023-02-15T05:41:15.915Z,99921.84
2023-02-15T05:43:45.118Z,99925.78
2023-02-15T05:46:14.472Z,99928.28
2023-02-15T05:48:43.962Z,99929.75
2023-02-15T05:51:15.061Z,99924.63
2023-02-15T05:53:44.420Z,99935.53
2023-02-15T05:56:14.472Z,99929.41
2023-02-15T05:58:43.831Z,99931.78
2023-02-15T06:01:18.190Z,99941.53
2023-02-15T06:03:47.568Z,99943.97
2023-02-15T06:06:17.635Z,99948.41
2023-02-15T06:08:47.014Z,99938.13
2023-02-15T06:11:16.542Z,99936.94
2023-02-15T06:13:46.230Z,99946.75
2023-02-15T06:16:16.982Z,99939.97
2023-02-15T06:18:46.372Z,99942.34
2023-02-15T06:21:15.587Z,99954.28
2023-02-15T06:23:44.910Z,99948.78
2023-02-15T06:26:14.474Z,99952.81
2023-02-15T06:28:43.725Z,99944.28
2023-02-15T06:31:13.128Z,99948.06
2023-02-15T06:33:42.496Z,99949.88
2023-02-15T06:36:11.870Z,99953.28
2023-02-15T06:38:41.189Z,99953.81
2023-02-15T06:41:10.442Z,99961.34
2023-02-15T06:43:41.034Z,99958.69
2023-02-15T06:46:10.503Z,99958.47
2023-02-15T06:48:39.730Z,99948.88
2023-02-15T06:51:08.994Z,99955.19
2023-02-15T06:53:38.262Z,99957.94
2023-02-15T06:56:10.188Z,99962.88
2023-02-15T06:58:43.664Z,99957.38
2023-02-15T07:01:13.404Z,99961.31
2023-02-15T07:03:42.852Z,99957.63
2023-02-15T07:06:12.527Z,99962.31
2023-02-15T07:08:41.802Z,99964.56
2023-02-15T07:11:29.471Z,99959.72
2023-02-15T07:13:58.554Z,99957.16
2023-02-15T07:16:27.864Z,99955.03
2023-02-15T07:18:57.170Z,99961.34
2023-02-15T07:21:26.400Z,99947.66
2023-02-15T07:24:01.146Z,99952.31
2023-02-15T07:26:33.196Z,99948.41
2023-02-15T07:29:02.566Z,99947.72
2023-02-15T07:31:31.798Z,99947.84
2023-02-15T07:34:01.055Z,99947.25
2023-02-15T07:36:30.296Z,99946.84
2023-02-15T07:38:59.474Z,99945.09
2023-02-15T07:41:28.689Z,99942.44
2023-02-15T07:43:57.888Z,99939.47
2023-02-15T07:46:27.216Z,99937.94
2023-02-15T07:48:56.429Z,99938.16
2023-02-15T07:51:25.597Z,99938.78
2023-02-15T07:53:54.934Z,99932.31
2023-02-15T07:56:24.279Z,99940.53
2023-02-15T07:58:53.677Z,99934.88
2023-02-15T08:01:36.379Z,99929.94
2023-02-15T08:04:07.808Z,99927.16
2023-02-15T08:06:37.680Z,99925.09
2023-02-15T08:09:09.706Z,99929.94
2023-02-15T08:11:40.850Z,99920.69
2023-02-15T08:14:15.483Z,99916.25
2023-02-15T08:16:47.080Z,99915.53
2023-02-15T08:19:16.306Z,99905.16
2023-02-15T08:21:49.775Z,99908.75
2023-02-15T08:24:22.895Z,99902.47
2023-02-15T08:26:53.326Z,99899.66
2023-02-15T08:29:26.583Z,99896.28
2023-02-15T08:32:10.215Z,99898.69
2023-02-15T08:34:42.808Z,99888.66
2023-02-15T08:37:12.143Z,99895.84
2023-02-15T08:39:42.800Z,99888.44
2023-02-15T08:42:12.022Z,99890.59
2023-02-15T08:44:41.277Z,99875.00
2023-02-15T08:47:10.461Z,99879.13
2023-02-15T08:49:39.677Z,99880.16
2023-02-15T08:52:08.882Z,99881.50
2023-02-15T08:54:38.171Z,99879.75
2023-02-15T08:57:08.049Z,99873.31
2023-02-15T08:59:37.457Z,99872.66
2023-02-15T09:02:06.794Z,99874.91
2023-02-15T09:04:36.244Z,99863.34
2023-02-15T09:07:05.525Z,99864.44
2023-02-15T09:09:34.796Z,99870.31
2023-02-15T09:12:04.149Z,99861.78
2023-02-15T09:14:34.433Z,99858.03
2023-02-15T09:17:03.694Z,99854.28
2023-02-15T09:19:32.927Z,99861.50
2023-02-15T09:22:02.334Z,99867.28
2023-02-15T09:24:34.814Z,99858.03
2023-02-15T09:27:04.254Z,99865.91
2023-02-15T09:29:33.463Z,99858.50
2023-02-15T09:32:02.773Z,99860.16
2023-02-15T09:34:34.110Z,99854.16
2023-02-15T09:37:07.508Z,99853.34
2023-02-15T09:39:42.355Z,99848.78
2023-02-15T09:42:33.984Z,99849.72
2023-02-15T09:45:08.964Z,99861.34
2023-02-15T09:48:30.669Z,99847.75
2023-02-15T09:51:29.702Z,99851.38
2023-02-15T09:54:13.139Z,99848.19
2023-02-15T09:57:01.716Z,99845.59
2023-02-15T10:00:01.519Z,99852.63
2023-02-15T10:03:12.898Z,99845.44
2023-02-15T10:05:56.826Z,99834.00
2023-02-15T10:09:19.082Z,99830.34
2023-02-15T10:12:19.416Z,99831.47
2023-02-15T10:15:12.606Z,99822.28
2023-02-15T10:18:33.762Z,99830.00
2023-02-15T10:21:22.202Z,99822.53
2023-02-15T10:24:22.662Z,99821.09
2023-02-15T10:26:56.020Z,99805.88
2023-02-15T10:29:38.588Z,99812.19
2023-02-15T10:32:27.324Z,99807.22
2023-02-15T10:36:05.274Z,99802.66
2023-02-15T10:39:08.755Z,99802.00
2023-02-15T10:42:12.365Z,99794.41
2023-02-15T10:45:05.653Z,99789.28
2023-02-15T10:48:01.049Z,99788.72
2023-02-15T10:50:56.469Z,99783.31
2023-02-15T10:53:53.146Z,99773.34
2023-02-15T10:56:33.901Z,99764.25
2023-02-15T10:59:29.570Z,99754.16
2023-02-15T11:02:20.204Z,99755.28
2023-02-15T11:04:58.509Z,99751.19
2023-02-15T11:07:41.673Z,99751.50
2023-02-15T11:10:29.492Z,99757.22
2023-02-15T11:13:06.818Z,99750.53
2023-02-15T11:15:45.762Z,99745.09
2023-02-15T11:18:48.918Z,99730.75
2023-02-15T11:21:21.141Z,99727.50
2023-02-15T11:23:51.047Z,99727.22
2023-02-15T11:26:35.024Z,99725.03
2023-02-15T11:29:29.087Z,99729.72
2023-02-15T11:32:13.684Z,99716.19
2023-02-15T11:34:59.424Z,99714.66
2023-02-15T11:37:47.158Z,99707.97
2023-02-15T11:40:27.740Z,99710.00
2023-02-15T11:43:07.918Z,99704.53
2023-02-15T11:45:37.384Z,99697.97
2023-02-15T11:48:13.311Z,99696.44
2023-02-15T11:50:44.461Z,99689.22
2023-02-15T11:53:17.250Z,99690.28
2023-02-15T11:55:51.844Z,99688.75
2023-02-15T11:58:43.752Z,99680.38
2023-02-15T12:01:38.007Z,99684.72
2023-02-15T12:04:21.798Z,99673.78
2023-02-15T12:07:03.518Z,99659.38
2023-02-15T12:10:18.178Z,99664.22
2023-02-15T12:12:47.901Z,99653.41
2023-02-15T12:15:33.299Z,99654.47
2023-02-15T12:18:03.167Z,99648.38
2023-02-15T12:20:34.673Z,99648.75
2023-02-15T12:23:18.449Z,99650.19
2023-02-15T12:25:57.634Z,99641.63
2023-02-15T12:28:45.392Z,99643.19
2023-02-15T12:31:28.425Z,99639.03
2023-02-15T12:34:02.822Z,99632.13
2023-02-15T12:36:45.546Z,99628.59
2023-02-15T12:39:14.745Z,99632.63
2023-02-15T12:41:55.963Z,99623.09
2023-02-15T12:44:32.477Z,99621.34
2023-02-15T12:47:09.237Z,99612.63
2023-02-15T12:49:39.610Z,99616.91
2023-02-15T12:52:23.409Z,99607.19
2023-02-15T12:54:53.051Z,99602.03
2023-02-15T12:57:35.207Z,99597.53
2023-02-15T13:00:28.643Z,99596.59
2023-02-15T13:03:00.835Z,99587.38
2023-02-15T13:05:39.710Z,99584.59
2023-02-15T13:08:21.699Z,99582.66
2023-02-15T13:11:13.528Z,99577.16
2023-02-15T13:14:03.733Z,99578.78
2023-02-15T13:16:41.101Z,99568.38
2023-02-15T13:19:22.767Z,99572.78
2023-02-15T13:21:54.220Z,99573.28
2023-02-15T13:24:39.185Z,99568.38
2023-02-15T13:27:19.347Z,99559.44
2023-02-15T13:29:58.374Z,99561.06
2023-02-15T13:32:34.834Z,99559.44
2023-02-15T13:35:09.667Z,99550.78
2023-02-15T13:38:09.918Z,99556.81
2023-02-15T13:40:54.471Z,99549.47
2023-02-15T13:43:51.585Z,99538.72
2023-02-15T13:46:51.206Z,99551.75
2023-02-15T13:49:42.917Z,99543.94
2023-02-15T13:52:29.109Z,99547.34
2023-02-15T13:55:24.811Z,99542.00
2023-02-15T13:58:15.500Z,99548.66
2023-02-15T14:01:01.674Z,99534.97
2023-02-15T14:04:16.002Z,99537.44
2023-02-15T14:07:22.718Z,99542.31
2023-02-15T14:10:16.802Z,99543.63
2023-02-15T14:13:04.237Z,99543.94
2023-02-15T14:15:50.085Z,99544.75
2023-02-15T14:18:27.724Z,99551.75
2023-02-15T14:21:25.167Z,99538.88
2023-02-15T14:24:00.112Z,99542.63
2023-02-15T14:26:59.557Z,99539.53
2023-02-15T14:30:00.915Z,99537.59
2023-02-15T14:33:04.190Z,99536.28
2023-02-15T14:35:34.221Z,99534.16
2023-02-15T14:38:06.454Z,99537.75
2023-02-15T14:41:04.902Z,99533.66
2023-02-15T14:44:05.353Z,99531.50
2023-02-15T14:47:00.941Z,99532.00
2023-02-15T14:49:48.023Z,99524.84
2023-02-15T14:52:17.283Z,99525.81
2023-02-15T14:54:46.382Z,99528.88
2023-02-15T14:57:15.502Z,99521.41
2023-02-15T15:00:00.560Z,99518.59
2023-02-15T15:02:44.802Z,99519.41
2023-02-15T15:05:35.293Z,99523.31
2023-02-15T15:08:07.028Z,99519.38
2023-02-15T15:10:45.931Z,99530.44
2023-02-15T15:13:33.477Z,99519.03
2023-02-15T15:16:37.005Z,99518.31
2023-02-15T15:19:12.474Z,99523.31
2023-02-15T15:21:47.767Z,99524.75
2023-02-15T15:24:39.272Z,99524.06
2023-02-15T15:27:51.312Z,99525.34
2023-02-15T15:30:23.577Z,99517.50
2023-02-15T15:33:03.274Z,99519.91
2023-02-15T15:36:15.702Z,99521.03
2023-02-15T15:39:38.185Z,99508.06
2023-02-15T15:42:36.316Z,99508.63
2023-02-15T15:45:48.666Z,99495.53
2023-02-15T15:48:34.526Z,99507.94
2023-02-15T15:51:15.652Z,99513.56
2023-02-15T15:53:51.437Z,99509.13
2023-02-15T15:56:29.106Z,99506.78
2023-02-15T15:59:03.967Z,99509.06
2023-02-15T16:01:45.436Z,99517.94
2023-02-15T16:04:32.452Z,99514.56
2023-02-15T16:07:19.968Z,99511.50
2023-02-15T16:10:00.042Z,99521.13
2023-02-15T16:12:34.123Z,99523.63
2023-02-15T16:15:26.756Z,99520.94
2023-02-15T16:17:59.570Z,99522.59
2023-02-15T16:20:38.304Z,99520.88
2023-02-15T16:23:32.243Z,99527.09
2023-02-15T16:26:17.023Z,99523.25
2023-02-15T16:28:55.040Z,99529.88
2023-02-15T16:31:24.444Z,99528.78
2023-02-15T16:33:56.937Z,99520.59
2023-02-15T16:36:30.272Z,99527.84
2023-02-15T16:38:59.421Z,99521.97
2023-02-15T16:41:31.849Z,99532.78
2023-02-15T16:44:18.827Z,99534.28
2023-02-15T16:46:54.991Z,99524.88
2023-02-15T16:49:28.676Z,99527.34
2023-02-15T16:52:02.131Z,99535.13
2023-02-15T16:54:32.940Z,99527.34
2023-02-15T16:57:03.101Z,99539.06
2023-02-15T16:59:48.085Z,99538.91
2023-02-15T17:02:53.235Z,99534.53
2023-02-15T17:05:21.008Z,99539.44
2023-02-15T17:08:32.156Z,99547.06
2023-02-15T17:11:18.828Z,99545.56
2023-02-15T17:14:06.633Z,99556.25
2023-02-15T17:16:51.833Z,99554.56
2023-02-15T17:19:25.558Z,99555.38
2023-02-15T17:21:59.912Z,99559.13
2023-02-15T17:24:31.910Z,99561.78
2023-02-15T17:27:08.131Z,99554.25
2023-02-15T17:29:41.696Z,99562.53
2023-02-15T17:32:23.354Z,99569.50
2023-02-15T17:35:01.249Z,99565.84
2023-02-15T17:37:49.797Z,99586.13
2023-02-15T17:40:34.956Z,99575.81
2023-02-15T17:43:04.583Z,99574.91
2023-02-15T17:46:02.336Z,99571.91
2023-02-15T17:48:42.071Z,99569.22
2023-02-15T17:51:15.190Z,99565.03
2023-02-15T17:54:04.094Z,99574.19
2023-02-15T17:56:35.570Z,99567.78
2023-02-15T17:59:08.294Z,99575.53
2023-02-15T18:02:04.950Z,99565.94
2023-02-15T18:04:56.051Z,99578.00
2023-02-15T18:07:43.824Z,99567.47
2023-02-15T18:10:33.948Z,99566.75
2023-02-15T18:13:03.654Z,99566.53
2023-02-15T18:15:32.954Z,99562.78
2023-02-15T18:18:02.812Z,99562.06
2023-02-15T18:20:37.237Z,99580.31
2023-02-15T18:23:15.089Z,99562.97
2023-02-15T18:25:44.329Z,99561.22
2023-02-15T18:28:13.540Z,99562.28
2023-02-15T18:30:43.310Z,99565.09
2023-02-15T18:33:39.420Z,99576.34
2023-02-15T18:36:32.623Z,99580.09
2023-02-15T18:39:08.477Z,99577.00
2023-02-15T18:41:38.146Z,99575.84
2023-02-15T18:44:13.539Z,99578.06
2023-02-15T18:46:42.975Z,99587.16
2023-02-15T18:49:12.294Z,99583.06
2023-02-15T18:51:41.790Z,99577.66
2023-02-15T18:54:24.049Z,99584.75
2023-02-15T18:57:00.449Z,99582.28
2023-02-15T18:59:31.269Z,99590.25
2023-02-15T19:02:01.261Z,99596.13
2023-02-15T19:04:32.395Z,99598.81
2023-02-15T19:07:01.710Z,99595.63
2023-02-15T19:09:32.618Z,99587.41
2023-02-15T19:12:03.110Z,99590.41
2023-02-15T19:14:33.386Z,99593.22
2023-02-15T19:17:02.680Z,99588.28
2023-02-15T19:19:32.032Z,99590.38
2023-02-15T19:22:02.523Z,99590.81
2023-02-15T19:24:40.451Z,99589.97
2023-02-15T19:27:37.198Z,99592.06
2023-02-15T19:30:19.830Z,99588.88
2023-02-15T19:32:49.206Z,99585.34
2023-02-15T19:35:23.473Z,99587.19
2023-02-15T19:37:59.448Z,99584.09
2023-02-15T19:40:35.379Z,99580.03
2023-02-15T19:43:15.441Z,99592.97
2023-02-15T19:45:45.542Z,99587.13
2023-02-15T19:48:14.992Z,99595.28
2023-02-15T19:50:49.049Z,99586.84
2023-02-15T19:53:29.085Z,99594.44
2023-02-15T19:55:58.344Z,99586.63
2023-02-15T19:58:27.567Z,99577.47
2023-02-15T20:00:56.922Z,99579.31
2023-02-15T20:03:26.169Z,99589.75
2023-02-15T20:05:55.470Z,99589.03
2023-02-15T20:08:24.896Z,99588.28
2023-02-15T20:10:54.146Z,99597.25
2023-02-15T20:13:23.745Z,99596.53
2023-02-15T20:15:53.237Z,99589.94
2023-02-15T20:18:22.923Z,99594.50
2023-02-15T20:20:55.045Z,99600.56
2023-02-15T20:23:30.850Z,99603.25
2023-02-15T20:26:12.645Z,99603.47
2023-02-15T20:28:41.850Z,99597.81
2023-02-15T20:31:20.333Z,99601.53
2023-02-15T20:33:49.914Z,99594.94
2023-02-15T20:36:22.429Z,99594.94
2023-02-15T20:38:51.866Z,99598.41
2023-02-15T20:41:40.848Z,99606.84
2023-02-15T20:44:19.120Z,99604.38
2023-02-15T20:46:52.401Z,99606.22
2023-02-15T20:49:26.781Z,99602.53
2023-02-15T20:51:57.547Z,99608.59
2023-02-15T20:54:33.623Z,99609.75
2023-02-15T20:57:05.962Z,99601.63
2023-02-15T20:59:35.390Z,99606.63
2023-02-15T21:02:24.963Z,99612.81
2023-02-15T21:04:55.522Z,99616.72
2023-02-15T21:07:24.816Z,99614.44
2023-02-15T21:09:54.326Z,99606.44
2023-02-15T21:12:24.787Z,99600.06
2023-02-15T21:14:54.029Z,99607.13
2023-02-15T21:17:23.574Z,99612.25
2023-02-15T21:19:52.993Z,99603.94
2023-02-15T21:22:23.156Z,99607.44
2023-02-15T21:24:55.056Z,99609.09
2023-02-15T21:27:24.451Z,99610.53
2023-02-15T21:29:53.671Z,99605.59
2023-02-15T21:32:23.004Z,99604.47
2023-02-15T21:34:52.234Z,99598.78
2023-02-15T21:37:32.848Z,99601.25
2023-02-15T21:40:03.078Z,99595.47
2023-02-15T21:42:51.381Z,99603.09
2023-02-15T21:45:39.161Z,99600.75
2023-02-15T21:48:08.894Z,99600.75
2023-02-15T21:50:56.978Z,99598.28
2023-02-15T21:53:33.737Z,99597.22
2023-02-15T21:56:06.576Z,99594.66
2023-02-15T21:58:37.710Z,99591.59
2023-02-15T22:01:07.590Z,99596.19
2023-02-15T22:03:39.571Z,99598.88
2023-02-15T22:06:13.830Z,99602.44
2023-02-15T22:08:43.447Z,99590.09
2023-02-15T22:11:19.679Z,99594.22
2023-02-15T22:13:50.804Z,99588.06
2023-02-15T22:16:23.032Z,99588.19
2023-02-15T22:18:52.472Z,99588.28
2023-02-15T22:21:22.315Z,99588.53
2023-02-15T22:23:51.544Z,99593.69
2023-02-15T22:26:25.403Z,99587.94
2023-02-15T22:28:56.779Z,99595.63
2023-02-15T22:31:27.718Z,99601.78
2023-02-15T22:33:56.956Z,99589.88
2023-02-15T22:36:30.977Z,99594.81
2023-02-15T22:39:00.196Z,99594.25
2023-02-15T22:41:31.618Z,99590.25
2023-02-15T22:44:00.973Z,99592.19
2023-02-15T22:46:30.225Z,99588.09
2023-02-15T22:48:59.476Z,99590.84
2023-02-15T22:51:29.856Z,99590.84
2023-02-15T22:53:59.138Z,99588.28
2023-02-15T22:57:00.843Z,99589.00
2023-02-15T22:59:34.231Z,99587.38
2023-02-15T23:02:06.471Z,99577.47
2023-02-15T23:04:35.805Z,99579.69
2023-02-15T23:07:15.295Z,99581.66
2023-02-15T23:09:45.969Z,99585.22
2023-02-15T23:12:27.825Z,99580.28
2023-02-15T23:14:58.114Z,99580.28
2023-02-15T23:17:27.330Z,99587.25
2023-02-15T23:19:56.616Z,99577.09
2023-02-15T23:22:25.852Z,99587.44
2023-02-15T23:24:55.036Z,99587.63
2023-02-15T23:27:42.928Z,99580.84
2023-02-15T23:30:15.000Z,99582.31
2023-02-15T23:32:44.383Z,99582.31
2023-02-15T23:35:16.802Z,99587.44
2023-02-15T23:37:46.264Z,99593.47
2023-02-15T23:40:37.943Z,99583.22
2023-02-15T23:43:13.738Z,99584.34
2023-02-15T23:45:43.018Z,99587.34
2023-02-15T23:48:31.629Z,99590.22
2023-02-15T23:51:02.111Z,99582.44
2023-02-15T23:53:32.568Z,99583.06
2023-02-15T23:56:02.444Z,99578.97
2023-02-15T23:58:40.477Z,99586.00
